createdAt,value
2023-03-30T00:01:34.101Z,101228.41
2023-03-30T00:04:02.956Z,101231.03
2023-03-30T00:06:30.795Z,101239.25
2023-03-30T00:08:59.795Z,101242.88
2023-03-30T00:11:34.400Z,101238.91
2023-03-30T00:14:01.912Z,101229.59
2023-03-30T00:16:29.631Z,101225.25
2023-03-30T00:18:57.458Z,101238.78
2023-03-30T00:21:25.872Z,101233.44
2023-03-30T00:23:54.425Z,101232.88
2023-03-30T00:26:22.455Z,101242.25
2023-03-30T00:28:49.860Z,101231.28
2023-03-30T00:31:17.409Z,101236.59
2023-03-30T00:33:46.913Z,101234.69
2023-03-30T00:36:15.891Z,101241.44
2023-03-30T00:38:45.903Z,101240.47
2023-03-30T00:41:13.689Z,101242.50
2023-03-30T00:44:39.443Z,101254.97
2023-03-30T00:47:08.241Z,101250.63
2023-03-30T00:49:35.773Z,101252.53
2023-03-30T00:52:05.761Z,101246.38
2023-03-30T00:54:35.469Z,101246.75
2023-03-30T00:57:03.964Z,101249.66
2023-03-30T00:59:35.417Z,101263.06
2023-03-30T01:02:05.414Z,101257.50
2023-03-30T01:04:37.474Z,101257.97
2023-03-30T01:07:07.581Z,101263.16
2023-03-30T01:09:34.968Z,101251.81
2023-03-30T01:12:02.568Z,101251.59
2023-03-30T01:14:30.299Z,101253.75
2023-03-30T01:17:13.584Z,101264.63
2023-03-30T01:19:56.933Z,101248.19
2023-03-30T01:22:41.539Z,101245.31
2023-03-30T01:25:45.523Z,101235.41
2023-03-30T01:28:19.702Z,101242.00
2023-03-30T01:31:42.063Z,101248.19
2023-03-30T01:34:40.975Z,101246.25
2023-03-30T01:37:26.720Z,101238.97
2023-03-30T01:40:13.270Z,101240.56
2023-03-30T01:42:58.697Z,101237.91
2023-03-30T01:45:47.077Z,101232.25
2023-03-30T01:48:45.545Z,101241.66
2023-03-30T01:51:21.595Z,101238.75
2023-03-30T01:54:06.807Z,101241.78
2023-03-30T01:56:46.746Z,101254.84
2023-03-30T01:59:40.011Z,101244.28
2023-03-30T02:02:11.514Z,101241.19
2023-03-30T02:04:42.388Z,101240.47
2023-03-30T02:07:24.634Z,101240.94
2023-03-30T02:09:59.049Z,101242.88
2023-03-30T02:12:30.212Z,101241.19
2023-03-30T02:15:04.800Z,101240.56
2023-03-30T02:17:35.828Z,101229.25
2023-03-30T02:20:04.614Z,101234.44
2023-03-30T02:22:34.774Z,101238.53
2023-03-30T02:25:02.911Z,101236.59
2023-03-30T02:27:32.020Z,101230.78
2023-03-30T02:30:00.568Z,101230.91
2023-03-30T02:32:37.258Z,101225.75
2023-03-30T02:35:18.873Z,101219.56
2023-03-30T02:38:24.041Z,101227.06
2023-03-30T02:41:27.515Z,101228.88
2023-03-30T02:44:09.420Z,101232.03
2023-03-30T02:47:23.054Z,101227.63
2023-03-30T02:50:00.154Z,101220.41
2023-03-30T02:52:57.103Z,101217.75
2023-03-30T02:55:42.145Z,101220.16
2023-03-30T02:58:18.955Z,101226.44
2023-03-30T03:01:00.972Z,101235.97
2023-03-30T03:03:38.705Z,101234.91
2023-03-30T03:06:09.505Z,101232.50
2023-03-30T03:08:41.128Z,101238.53
2023-03-30T03:11:09.626Z,101239.28
2023-03-30T03:13:39.361Z,101238.53
2023-03-30T03:16:11.164Z,101246.03
2023-03-30T03:18:42.241Z,101246.75
2023-03-30T03:21:11.663Z,101244.19
2023-03-30T03:23:39.527Z,101253.03
2023-03-30T03:26:07.621Z,101244.81
2023-03-30T03:28:36.444Z,101249.41
2023-03-30T03:31:04.065Z,101248.31
2023-03-30T03:33:32.867Z,101250.00
2023-03-30T03:36:01.086Z,101255.47
2023-03-30T03:38:29.088Z,101257.38
2023-03-30T03:40:58.322Z,101263.41
2023-03-30T03:43:26.271Z,101250.56
2023-03-30T03:45:55.429Z,101260.50
2023-03-30T03:48:24.636Z,101260.94
2023-03-30T03:50:58.153Z,101257.59
2023-03-30T03:53:28.104Z,101257.47
2023-03-30T03:55:55.892Z,101257.97
2023-03-30T03:58:24.863Z,101251.34
2023-03-30T04:00:57.471Z,101239.72
2023-03-30T04:03:32.610Z,101247.56
2023-03-30T04:06:01.193Z,101246.72
2023-03-30T04:08:30.704Z,101249.38
2023-03-30T04:11:09.305Z,101245.28
2023-03-30T04:13:38.790Z,101244.28
2023-03-30T04:16:07.514Z,101251.81
2023-03-30T04:18:36.404Z,101251.31
2023-03-30T04:21:07.630Z,101246.38
2023-03-30T04:23:40.185Z,101247.69
2023-03-30T04:26:08.130Z,101253.84
2023-03-30T04:28:35.761Z,101247.84
2023-03-30T04:31:06.729Z,101248.69
2023-03-30T04:33:35.160Z,101254.69
2023-03-30T04:36:02.533Z,101247.41
2023-03-30T04:38:30.724Z,101243.13
2023-03-30T04:41:01.976Z,101243.38
2023-03-30T04:43:30.097Z,101251.69
2023-03-30T04:45:57.698Z,101241.19
2023-03-30T04:48:26.497Z,101250.22
2023-03-30T04:50:54.258Z,101257.50
2023-03-30T04:53:23.173Z,101262.22
2023-03-30T04:55:53.316Z,101268.75
2023-03-30T04:58:21.285Z,101267.28
2023-03-30T05:00:52.334Z,101273.59
2023-03-30T05:03:23.260Z,101276.72
2023-03-30T05:05:51.378Z,101284.44
2023-03-30T05:08:18.736Z,101276.22
2023-03-30T05:10:50.426Z,101284.47
2023-03-30T05:13:18.553Z,101284.94
2023-03-30T05:15:52.661Z,101284.69
2023-03-30T05:18:20.594Z,101279.16
2023-03-30T05:20:48.638Z,101282.75
2023-03-30T05:23:16.458Z,101282.38
2023-03-30T05:25:49.097Z,101287.22
2023-03-30T05:28:19.823Z,101278.72
2023-03-30T05:30:53.937Z,101284.31
2023-03-30T05:33:24.384Z,101281.56
2023-03-30T05:35:52.125Z,101279.16
2023-03-30T05:38:19.595Z,101273.53
2023-03-30T05:40:51.942Z,101281.53
2023-03-30T05:43:19.510Z,101285.03
2023-03-30T05:45:46.953Z,101282.88
2023-03-30T05:48:15.082Z,101288.31
2023-03-30T05:50:43.069Z,101292.44
2023-03-30T05:53:11.111Z,101295.56
2023-03-30T05:55:38.602Z,101305.22
2023-03-30T05:58:06.748Z,101308.38
2023-03-30T06:00:37.390Z,101310.06
2023-03-30T06:03:14.099Z,101310.88
2023-03-30T06:05:43.883Z,101313.19
2023-03-30T06:08:13.682Z,101316.91
2023-03-30T06:10:41.785Z,101318.59
2023-03-30T06:13:09.140Z,101328.03
2023-03-30T06:15:37.037Z,101319.88
2023-03-30T06:18:05.287Z,101318.00
2023-03-30T06:20:33.851Z,101321.06
2023-03-30T06:23:02.634Z,101318.13
2023-03-30T06:25:31.025Z,101320.88
2023-03-30T06:27:58.602Z,101324.16
2023-03-30T06:30:26.838Z,101310.94
2023-03-30T06:32:55.279Z,101310.78
2023-03-30T06:35:23.311Z,101304.13
2023-03-30T06:37:51.117Z,101314.91
2023-03-30T06:40:19.280Z,101301.25
2023-03-30T06:42:47.147Z,101295.69
2023-03-30T06:45:14.918Z,101304.50
2023-03-30T06:47:44.464Z,101305.19
2023-03-30T06:50:12.036Z,101308.34
2023-03-30T06:52:39.975Z,101308.88
2023-03-30T06:55:09.524Z,101319.94
2023-03-30T06:57:37.233Z,101306.63
2023-03-30T07:00:15.386Z,101307.56
2023-03-30T07:02:44.537Z,101321.84
2023-03-30T07:05:13.508Z,101310.78
2023-03-30T07:07:41.980Z,101311.22
2023-03-30T07:10:12.672Z,101306.47
2023-03-30T07:12:41.519Z,101292.31
2023-03-30T07:15:10.263Z,101294.88
2023-03-30T07:17:38.243Z,101301.69
2023-03-30T07:20:08.562Z,101298.06
2023-03-30T07:22:36.437Z,101308.06
2023-03-30T07:25:04.778Z,101299.84
2023-03-30T07:27:37.165Z,101300.25
2023-03-30T07:30:20.596Z,101302.91
2023-03-30T07:32:54.421Z,101291.09
2023-03-30T07:35:23.664Z,101300.09
2023-03-30T07:37:51.705Z,101291.34
2023-03-30T07:40:21.508Z,101295.13
2023-03-30T07:42:50.721Z,101296.00
2023-03-30T07:45:20.307Z,101302.22
2023-03-30T07:47:47.784Z,101288.31
2023-03-30T07:50:15.300Z,101295.97
2023-03-30T07:52:43.211Z,101302.19
2023-03-30T07:55:11.147Z,101302.19
2023-03-30T07:57:42.373Z,101298.59
2023-03-30T08:00:10.781Z,101297.16
2023-03-30T08:02:39.083Z,101284.66
2023-03-30T08:05:09.780Z,101277.84
2023-03-30T08:07:37.346Z,101281.81
2023-03-30T08:10:05.496Z,101287.19
2023-03-30T08:12:38.591Z,101299.34
2023-03-30T08:15:07.437Z,101288.16
2023-03-30T08:17:35.085Z,101282.81
2023-03-30T08:20:09.308Z,101283.78
2023-03-30T08:22:39.555Z,101291.09
2023-03-30T08:25:07.160Z,101288.03
2023-03-30T08:27:36.318Z,101276.53
2023-03-30T08:30:04.779Z,101282.66
2023-03-30T08:32:34.254Z,101275.97
2023-03-30T08:35:03.118Z,101268.16
2023-03-30T08:37:30.721Z,101259.63
2023-03-30T08:39:58.087Z,101262.28
2023-03-30T08:42:39.580Z,101267.50
2023-03-30T08:45:12.433Z,101270.88
2023-03-30T08:47:46.225Z,101269.59
2023-03-30T08:50:26.132Z,101269.59
2023-03-30T08:52:54.463Z,101273.84
2023-03-30T08:55:28.086Z,101271.56
2023-03-30T08:58:05.699Z,101268.78
2023-03-30T09:00:42.242Z,101273.31
2023-03-30T09:03:38.851Z,101271.88
2023-03-30T09:06:12.287Z,101282.47
2023-03-30T09:08:40.896Z,101276.03
2023-03-30T09:11:17.209Z,101268.78
2023-03-30T09:13:46.488Z,101283.69
2023-03-30T09:16:28.879Z,101285.88
2023-03-30T09:19:01.249Z,101279.28
2023-03-30T09:21:32.112Z,101284.81
2023-03-30T09:24:02.409Z,101285.25
2023-03-30T09:26:49.104Z,101275.38
2023-03-30T09:29:24.043Z,101276.75
2023-03-30T09:32:10.126Z,101285.72
2023-03-30T09:34:59.830Z,101279.16
2023-03-30T09:37:28.017Z,101285.53
2023-03-30T09:39:59.109Z,101284.22
2023-03-30T09:42:51.567Z,101281.06
2023-03-30T09:45:30.174Z,101280.00
2023-03-30T09:48:08.688Z,101283.66
2023-03-30T09:50:43.310Z,101278.03
2023-03-30T09:53:25.752Z,101266.34
2023-03-30T09:56:00.464Z,101268.09
2023-03-30T09:58:33.634Z,101267.81
2023-03-30T10:01:07.143Z,101262.06
2023-03-30T10:03:37.372Z,101269.16
2023-03-30T10:06:09.391Z,101264.88
2023-03-30T10:08:43.344Z,101253.66
2023-03-30T10:11:13.645Z,101256.84
2023-03-30T10:13:44.339Z,101251.63
2023-03-30T10:16:27.361Z,101248.31
2023-03-30T10:19:09.670Z,101258.84
2023-03-30T10:21:39.840Z,101242.88
2023-03-30T10:24:23.100Z,101244.44
2023-03-30T10:26:53.363Z,101238.22
2023-03-30T10:29:23.545Z,101239.84
2023-03-30T10:32:02.225Z,101250.84
2023-03-30T10:34:42.807Z,101235.97
2023-03-30T10:37:32.904Z,101232.16
2023-03-30T10:40:05.548Z,101232.25
2023-03-30T10:42:33.788Z,101233.06
2023-03-30T10:45:06.209Z,101224.91
2023-03-30T10:48:01.529Z,101228.50
2023-03-30T10:50:49.702Z,101228.38
2023-03-30T10:53:27.029Z,101223.25
2023-03-30T10:56:03.674Z,101218.84
2023-03-30T10:59:07.431Z,101210.69
2023-03-30T11:01:52.215Z,101221.50
2023-03-30T11:04:49.026Z,101216.56
2023-03-30T11:07:33.746Z,101213.19
2023-03-30T11:10:11.991Z,101208.16
2023-03-30T11:12:48.072Z,101212.72
2023-03-30T11:15:31.473Z,101217.53
2023-03-30T11:18:20.485Z,101202.59
2023-03-30T11:21:01.697Z,101202.06
2023-03-30T11:23:41.573Z,101205.31
2023-03-30T11:26:12.829Z,101195.28
2023-03-30T11:29:24.467Z,101188.97
2023-03-30T11:32:16.200Z,101192.50
2023-03-30T11:35:04.457Z,101193.28
2023-03-30T11:37:59.844Z,101192.09
2023-03-30T11:40:32.547Z,101188.09
2023-03-30T11:43:01.719Z,101180.88
2023-03-30T11:45:39.597Z,101191.78
2023-03-30T11:48:36.626Z,101191.22
2023-03-30T11:51:28.424Z,101180.16
2023-03-30T11:54:04.890Z,101182.56
2023-03-30T11:57:30.494Z,101184.25
2023-03-30T12:00:09.942Z,101179.38
2023-03-30T12:03:22.022Z,101178.25
2023-03-30T12:05:56.364Z,101183.91
2023-03-30T12:08:28.190Z,101182.19
2023-03-30T12:11:20.066Z,101185.06
2023-03-30T12:13:52.565Z,101177.44
2023-03-30T12:16:47.000Z,101176.41
2023-03-30T12:19:22.377Z,101177.97
2023-03-30T12:22:03.827Z,101178.00
2023-03-30T12:24:41.278Z,101180.56
2023-03-30T12:27:11.894Z,101184.34
2023-03-30T12:32:28.749Z,101170.66
2023-03-30T12:34:58.267Z,101169.59
2023-03-30T12:37:35.085Z,101168.63
2023-03-30T12:40:33.657Z,101165.50
2023-03-30T12:43:40.170Z,101155.44
2023-03-30T12:46:36.102Z,101158.97
2023-03-30T12:49:26.107Z,101159.22
2023-03-30T12:52:14.326Z,101163.81
2023-03-30T12:55:21.327Z,101150.16
2023-03-30T12:58:04.599Z,101151.72
2023-03-30T13:00:51.718Z,101137.78
2023-03-30T13:03:33.044Z,101139.34
2023-03-30T13:06:02.860Z,101136.03
2023-03-30T13:08:41.214Z,101128.09
2023-03-30T13:11:21.194Z,101133.31
2023-03-30T13:13:54.000Z,101132.97
2023-03-30T13:16:51.643Z,101136.91
2023-03-30T13:19:33.390Z,101126.69
2023-03-30T13:22:23.834Z,101123.06
2023-03-30T13:24:59.416Z,101125.75
2023-03-30T13:27:36.620Z,101119.94
2023-03-30T13:30:13.092Z,101122.53
2023-03-30T13:33:12.594Z,101109.78
2023-03-30T13:35:46.282Z,101112.75
2023-03-30T13:38:28.799Z,101112.78
2023-03-30T13:41:15.604Z,101112.22
2023-03-30T13:43:53.107Z,101103.69
2023-03-30T13:46:26.352Z,101110.22
2023-03-30T13:49:19.171Z,101110.72
2023-03-30T13:51:48.011Z,101108.38
2023-03-30T13:54:21.768Z,101100.91
2023-03-30T13:56:56.920Z,101090.25
2023-03-30T13:59:29.431Z,101094.09
2023-03-30T14:01:59.289Z,101095.50
2023-03-30T14:04:35.089Z,101095.13
2023-03-30T14:07:24.289Z,101089.53
2023-03-30T14:10:13.482Z,101089.03
2023-03-30T14:12:42.834Z,101093.56
2023-03-30T14:15:37.932Z,101088.44
2023-03-30T14:18:13.782Z,101090.16
2023-03-30T14:20:58.406Z,101087.59
2023-03-30T14:23:35.372Z,101092.78
2023-03-30T14:26:12.101Z,101082.91
2023-03-30T14:28:42.608Z,101085.91
2023-03-30T14:31:17.651Z,101084.47
2023-03-30T14:33:46.226Z,101084.97
2023-03-30T14:36:20.938Z,101077.94
2023-03-30T14:38:53.906Z,101068.50
2023-03-30T14:41:24.786Z,101079.38
2023-03-30T14:44:01.445Z,101076.81
2023-03-30T14:46:36.605Z,101083.13
2023-03-30T14:49:05.524Z,101071.56
2023-03-30T14:51:40.535Z,101074.16
2023-03-30T14:54:15.789Z,101081.91
2023-03-30T14:56:46.678Z,101079.03
2023-03-30T14:59:18.310Z,101079.91
2023-03-30T15:01:46.339Z,101071.03
2023-03-30T15:04:16.757Z,101072.22
2023-03-30T15:06:47.465Z,101061.97
2023-03-30T15:09:18.606Z,101068.75
2023-03-30T15:11:51.728Z,101069.03
2023-03-30T15:14:22.427Z,101069.69
2023-03-30T15:16:53.884Z,101065.78
2023-03-30T15:19:37.885Z,101064.84
2023-03-30T15:22:16.143Z,101066.56
2023-03-30T15:24:43.775Z,101065.16
2023-03-30T15:27:16.359Z,101061.88
2023-03-30T15:29:44.994Z,101058.44
2023-03-30T15:32:26.097Z,101057.03
2023-03-30T15:35:15.206Z,101046.59
2023-03-30T15:38:11.919Z,101044.25
2023-03-30T15:40:44.776Z,101062.56
2023-03-30T15:43:21.198Z,101059.88
2023-03-30T15:46:06.419Z,101057.81
2023-03-30T15:48:50.822Z,101060.00
2023-03-30T15:51:24.944Z,101053.63
2023-03-30T15:54:24.056Z,101057.94
2023-03-30T15:57:00.690Z,101055.06
2023-03-30T15:59:33.954Z,101058.69
2023-03-30T16:02:04.403Z,101056.75
2023-03-30T16:04:32.855Z,101058.75
2023-03-30T16:07:00.204Z,101067.28
2023-03-30T16:09:27.662Z,101049.75
2023-03-30T16:11:55.342Z,101046.34
2023-03-30T16:14:23.180Z,101056.03
2023-03-30T16:16:51.361Z,101051.22
2023-03-30T16:19:20.383Z,101053.81
2023-03-30T16:21:47.814Z,101057.06
2023-03-30T16:24:15.552Z,101059.03
2023-03-30T16:26:43.818Z,101067.47
2023-03-30T16:29:21.938Z,101065.66
2023-03-30T16:31:51.200Z,101058.78
2023-03-30T16:34:19.770Z,101059.34
2023-03-30T16:36:50.159Z,101064.34
2023-03-30T16:39:19.178Z,101057.88
2023-03-30T16:41:51.764Z,101067.47
2023-03-30T16:44:22.426Z,101074.16
2023-03-30T16:46:50.717Z,101076.19
2023-03-30T16:49:24.903Z,101074.25
2023-03-30T16:51:55.393Z,101076.84
2023-03-30T16:54:32.025Z,101074.47
2023-03-30T16:57:02.007Z,101070.94
2023-03-30T16:59:34.719Z,101063.66
2023-03-30T17:02:03.262Z,101076.00
2023-03-30T17:04:31.020Z,101065.88
2023-03-30T17:07:00.651Z,101070.91
2023-03-30T17:09:28.337Z,101064.69
2023-03-30T17:11:55.863Z,101072.22
2023-03-30T17:14:24.444Z,101076.69
2023-03-30T17:16:51.761Z,101073.47
2023-03-30T17:19:20.772Z,101074.03
2023-03-30T17:21:48.264Z,101071.13
2023-03-30T17:24:17.034Z,101076.16
2023-03-30T17:26:46.308Z,101075.47
2023-03-30T17:29:14.074Z,101073.91
2023-03-30T17:31:46.053Z,101073.06
2023-03-30T17:34:14.890Z,101072.13
2023-03-30T17:36:42.818Z,101071.28
2023-03-30T17:39:15.377Z,101077.44
2023-03-30T17:41:42.954Z,101064.44
2023-03-30T17:44:10.479Z,101066.63
2023-03-30T17:46:39.298Z,101063.66
2023-03-30T17:49:15.226Z,101066.31
2023-03-30T17:51:42.731Z,101064.53
2023-03-30T17:54:10.406Z,101063.75
2023-03-30T17:56:42.442Z,101066.50
2023-03-30T17:59:13.597Z,101059.56
2023-03-30T18:01:41.307Z,101057.38
2023-03-30T18:04:09.412Z,101050.09
2023-03-30T18:06:36.967Z,101046.00
2023-03-30T18:09:04.440Z,101044.03
2023-03-30T18:11:31.806Z,101036.03
2023-03-30T18:13:59.440Z,101036.16
2023-03-30T18:16:27.214Z,101039.44
2023-03-30T18:18:56.224Z,101031.13
2023-03-30T18:21:24.582Z,101022.47
2023-03-30T18:23:52.148Z,101026.75
2023-03-30T18:26:19.616Z,101027.19
2023-03-30T18:28:46.982Z,101027.25
2023-03-30T18:31:15.666Z,101017.72
2023-03-30T18:33:43.246Z,101017.09
2023-03-30T18:36:13.286Z,101007.25
2023-03-30T18:38:42.277Z,101016.81
2023-03-30T18:41:13.321Z,101010.31
2023-03-30T18:43:41.289Z,101000.38
2023-03-30T18:46:11.493Z,101002.69
2023-03-30T18:48:39.296Z,101008.13
2023-03-30T18:51:07.083Z,101005.13
2023-03-30T18:53:36.814Z,100999.41
2023-03-30T18:56:04.535Z,100994.94
2023-03-30T18:58:33.841Z,100992.59
2023-03-30T19:01:06.922Z,100997.72
2023-03-30T19:03:35.457Z,100988.44
2023-03-30T19:06:03.209Z,100977.59
2023-03-30T19:08:35.872Z,100971.97
2023-03-30T19:11:03.479Z,100982.94
2023-03-30T19:13:31.048Z,100977.75
2023-03-30T19:16:00.041Z,100962.75
2023-03-30T19:18:27.488Z,100972.88
2023-03-30T19:20:55.622Z,100964.63
2023-03-30T19:23:23.590Z,100962.63
2023-03-30T19:25:51.620Z,100962.81
2023-03-30T19:28:23.632Z,100957.53
2023-03-30T19:30:51.256Z,100956.25
2023-03-30T19:33:20.887Z,100955.25
2023-03-30T19:35:48.756Z,100955.00
2023-03-30T19:38:16.448Z,100955.28
2023-03-30T19:40:44.099Z,100946.31
2023-03-30T19:43:11.811Z,100943.91
2023-03-30T19:45:40.115Z,100944.22
2023-03-30T19:48:08.398Z,100937.63
2023-03-30T19:50:38.514Z,100934.97
2023-03-30T19:53:09.545Z,100934.00
2023-03-30T19:55:37.950Z,100928.34
2023-03-30T19:58:05.766Z,100926.97
2023-03-30T20:00:34.901Z,100930.16
2023-03-30T20:03:12.323Z,100920.50
2023-03-30T20:05:40.022Z,100929.31
2023-03-30T20:08:17.218Z,100921.38
2023-03-30T20:10:54.086Z,100929.47
2023-03-30T20:13:24.088Z,100919.25
2023-03-30T20:15:56.268Z,100923.72
2023-03-30T20:18:24.017Z,100926.66
2023-03-30T20:20:51.630Z,100924.31
2023-03-30T20:23:19.028Z,100916.72
2023-03-30T20:25:49.588Z,100919.38
2023-03-30T20:28:21.644Z,100916.44
2023-03-30T20:30:49.442Z,100912.66
2023-03-30T20:33:18.827Z,100912.34
2023-03-30T20:35:46.494Z,100915.44
2023-03-30T20:38:13.876Z,100908.72
2023-03-30T20:40:42.596Z,100910.13
2023-03-30T20:43:10.760Z,100902.25
2023-03-30T20:45:46.437Z,100900.56
2023-03-30T20:48:26.528Z,100905.66
2023-03-30T20:50:55.359Z,100902.53
2023-03-30T20:53:23.854Z,100905.38
2023-03-30T20:55:52.198Z,100907.59
2023-03-30T20:58:22.642Z,100901.84
2023-03-30T21:00:58.121Z,100896.94
2023-03-30T21:03:31.408Z,100900.28
2023-03-30T21:06:01.479Z,100897.66
2023-03-30T21:08:31.500Z,100900.16
2023-03-30T21:11:00.770Z,100900.19
2023-03-30T21:13:28.530Z,100901.97
2023-03-30T21:16:01.173Z,100898.47
2023-03-30T21:18:29.928Z,100900.00
2023-03-30T21:20:57.977Z,100891.19
2023-03-30T21:23:29.234Z,100894.97
2023-03-30T21:25:59.441Z,100896.38
2023-03-30T21:28:32.101Z,100892.03
2023-03-30T21:31:01.083Z,100886.69
2023-03-30T21:33:29.789Z,100891.88
2023-03-30T21:35:59.368Z,100885.16
2023-03-30T21:38:29.063Z,100885.44
2023-03-30T21:40:57.291Z,100895.53
2023-03-30T21:43:26.959Z,100895.78
2023-03-30T21:45:57.347Z,100882.63
2023-03-30T21:48:26.728Z,100888.34
2023-03-30T21:51:02.553Z,100886.84
2023-03-30T21:53:32.551Z,100884.72
2023-03-30T21:56:00.726Z,100887.38
2023-03-30T21:58:29.076Z,100883.00
2023-03-30T22:01:08.991Z,100882.53
2023-03-30T22:03:41.946Z,100877.72
2023-03-30T22:06:11.400Z,100875.78
2023-03-30T22:08:39.751Z,100869.91
2023-03-30T22:11:16.733Z,100874.28
2023-03-30T22:13:47.505Z,100872.88
2023-03-30T22:16:22.467Z,100866.75
2023-03-30T22:18:56.463Z,100872.41
2023-03-30T22:21:27.306Z,100866.22
2023-03-30T22:23:55.181Z,100861.16
2023-03-30T22:26:23.037Z,100860.25
2023-03-30T22:28:50.905Z,100863.97
2023-03-30T22:31:24.202Z,100869.84
2023-03-30T22:33:53.480Z,100867.09
2023-03-30T22:36:26.834Z,100860.13
2023-03-30T22:39:04.255Z,100863.03
2023-03-30T22:41:31.815Z,100863.19
2023-03-30T22:44:00.145Z,100868.72
2023-03-30T22:46:28.367Z,100865.31
2023-03-30T22:48:56.244Z,100871.66
2023-03-30T22:51:28.529Z,100864.94
2023-03-30T22:54:00.737Z,100867.06
2023-03-30T22:56:32.073Z,100864.69
2023-03-30T22:59:00.994Z,100869.25
2023-03-30T23:01:32.713Z,100867.34
2023-03-30T23:04:01.867Z,100864.69
2023-03-30T23:06:29.580Z,100863.63
2023-03-30T23:08:57.537Z,100867.56
2023-03-30T23:11:29.235Z,100865.03
2023-03-30T23:13:56.702Z,100861.75
2023-03-30T23:16:24.382Z,100859.88
2023-03-30T23:18:52.008Z,100853.19
2023-03-30T23:21:22.406Z,100860.34
2023-03-30T23:23:50.012Z,100854.94
2023-03-30T23:26:17.684Z,100855.25
2023-03-30T23:28:45.748Z,100844.28
2023-03-30T23:31:15.649Z,100856.00
2023-03-30T23:33:43.814Z,100846.19
2023-03-30T23:36:19.486Z,100848.94
2023-03-30T23:38:47.398Z,100847.06
2023-03-30T23:41:19.746Z,100846.81
2023-03-30T23:43:49.252Z,100840.22
2023-03-30T23:46:44.815Z,100840.66
2023-03-30T23:49:12.396Z,100836.38
2023-03-30T23:51:40.555Z,100836.59
2023-03-30T23:54:07.977Z,100835.16
2023-03-30T23:56:37.867Z,100834.56
2023-03-30T23:59:05.751Z,100836.06
